createdAt,value
2017-07-22T00:00:07.829Z,2.57
2017-07-22T00:02:34.074Z,2.67
2017-07-22T00:05:01.349Z,2.80
2017-07-22T00:07:27.614Z,2.90
2017-07-22T00:09:54.271Z,3.10
2017-07-22T00:12:21.847Z,2.40
2017-07-22T00:14:48.674Z,2.80
2017-07-22T00:17:14.935Z,2.60
2017-07-22T00:19:41.424Z,2.60
2017-07-22T00:22:08.495Z,2.40
2017-07-22T00:24:34.753Z,2.63
2017-07-22T00:27:00.997Z,2.60
2017-07-22T00:29:27.296Z,2.90
2017-07-22T00:31:53.780Z,3.00
2017-07-22T00:34:20.686Z,3.00
2017-07-22T00:36:47.228Z,2.70
2017-07-22T00:39:14.779Z,2.77
2017-07-22T00:41:41.037Z,3.50
2017-07-22T00:44:08.508Z,3.80
2017-07-22T00:46:36.248Z,4.60
2017-07-22T00:49:02.991Z,3.93
2017-07-22T00:51:29.741Z,3.67
2017-07-22T00:53:57.523Z,3.53
2017-07-22T00:56:26.194Z,3.50
2017-07-22T00:58:52.451Z,2.70
2017-07-22T01:01:19.684Z,3.10
2017-07-22T01:03:48.395Z,3.53
2017-07-22T01:06:15.594Z,3.43
2017-07-22T01:08:42.804Z,3.07
2017-07-22T01:11:09.072Z,2.93
2017-07-22T01:13:35.365Z,2.70
2017-07-22T01:16:03.058Z,2.87
2017-07-22T01:18:29.299Z,3.20
2017-07-22T01:20:56.022Z,2.30
2017-07-22T01:23:22.271Z,2.57
2017-07-22T01:25:48.589Z,2.63
2017-07-22T01:28:15.060Z,3.10
2017-07-22T01:30:42.363Z,2.93
2017-07-22T01:33:09.619Z,2.90
2017-07-22T01:35:36.819Z,3.33
2017-07-22T01:38:04.047Z,2.83
2017-07-22T01:40:30.962Z,2.87
2017-07-22T01:42:57.950Z,3.07
2017-07-22T01:45:25.242Z,2.93
2017-07-22T01:47:51.511Z,3.30
2017-07-22T01:50:18.533Z,3.50
2017-07-22T01:52:46.569Z,3.17
2017-07-22T01:55:13.772Z,3.50
2017-07-22T01:57:40.069Z,3.27
2017-07-22T02:00:07.495Z,3.20
2017-07-22T02:02:35.035Z,3.50
2017-07-22T02:05:01.903Z,3.13
2017-07-22T02:07:28.896Z,3.90
2017-07-22T02:09:55.280Z,2.90
2017-07-22T02:12:23.869Z,3.50
2017-07-22T02:14:51.661Z,3.20
2017-07-22T02:17:19.921Z,3.50
2017-07-22T02:19:46.388Z,3.40
2017-07-22T02:22:13.019Z,3.10
2017-07-22T02:24:39.751Z,2.90
2017-07-22T02:27:06.054Z,3.17
2017-07-22T02:29:33.332Z,3.17
2017-07-22T02:32:00.574Z,2.60
2017-07-22T02:34:28.865Z,2.50
2017-07-22T02:36:55.124Z,2.80
2017-07-22T02:39:22.653Z,2.23
2017-07-22T02:41:49.744Z,2.50
2017-07-22T02:44:17.567Z,3.73
2017-07-22T02:46:44.463Z,3.03
2017-07-22T02:49:11.495Z,3.13
2017-07-22T02:51:38.752Z,2.67
2017-07-22T02:54:05.773Z,3.37
2017-07-22T02:56:33.079Z,4.00
2017-07-22T02:58:59.319Z,3.80
2017-07-22T03:01:25.870Z,3.03
2017-07-22T03:03:52.168Z,3.97
2017-07-22T03:19:18.485Z,3.80
2017-07-22T03:21:44.746Z,3.03
2017-07-22T03:24:12.664Z,2.80
2017-07-22T03:26:39.959Z,3.40
2017-07-22T03:29:06.820Z,3.20
2017-07-22T03:31:33.628Z,3.17
2017-07-22T03:34:00.116Z,4.20
2017-07-22T03:36:26.998Z,3.70
2017-07-22T03:38:53.482Z,3.30
2017-07-22T03:41:19.778Z,4.07
2017-07-22T03:43:46.049Z,4.33
2017-07-22T03:46:12.342Z,3.80
2017-07-22T03:48:38.619Z,2.70
2017-07-22T03:51:06.787Z,3.07
2017-07-22T03:53:33.040Z,3.00
2017-07-22T03:55:59.326Z,3.90
2017-07-22T03:58:26.289Z,3.50
2017-07-22T04:00:52.966Z,3.27
2017-07-22T04:03:20.077Z,3.33
2017-07-22T04:05:47.332Z,3.10
2017-07-22T04:08:14.626Z,3.90
2017-07-22T04:10:41.395Z,3.47
2017-07-22T04:13:07.631Z,2.43
2017-07-22T04:15:35.433Z,3.50
2017-07-22T04:18:02.024Z,3.40
2017-07-22T04:20:29.115Z,3.00
2017-07-22T04:22:56.145Z,2.73
2017-07-22T04:25:22.398Z,3.40
2017-07-22T04:27:48.679Z,3.50
2017-07-22T04:30:15.412Z,3.23
2017-07-22T04:32:41.674Z,3.50
2017-07-22T04:35:09.568Z,3.13
2017-07-22T04:37:36.060Z,3.70
2017-07-22T04:40:02.636Z,3.00
2017-07-22T04:42:28.931Z,3.93
2017-07-22T04:44:55.921Z,5.07
2017-07-22T04:47:22.202Z,5.30
2017-07-22T04:49:48.710Z,4.23
2017-07-22T04:52:16.100Z,3.70
2017-07-22T04:54:42.466Z,3.80
2017-07-22T04:57:09.363Z,4.17
2017-07-22T04:59:36.364Z,4.00
2017-07-22T05:02:03.237Z,4.07
2017-07-22T05:04:30.389Z,3.50
2017-07-22T05:06:56.910Z,3.53
2017-07-22T05:09:23.865Z,3.20
2017-07-22T05:11:51.278Z,4.23
2017-07-22T05:14:17.770Z,3.80
2017-07-22T05:16:44.197Z,3.53
2017-07-22T05:19:11.456Z,4.10
2017-07-22T05:21:38.197Z,4.30
2017-07-22T05:24:04.845Z,3.60
2017-07-22T05:26:31.870Z,4.00
2017-07-22T05:28:58.169Z,3.80
2017-07-22T05:31:24.435Z,5.40
2017-07-22T05:33:50.688Z,4.30
2017-07-22T05:36:18.283Z,4.40
2017-07-22T05:38:44.644Z,4.53
2017-07-22T05:41:10.930Z,3.87
2017-07-22T05:43:38.142Z,4.00
2017-07-22T05:46:05.286Z,4.10
2017-07-22T05:48:31.566Z,4.10
2017-07-22T05:50:58.363Z,4.80
2017-07-22T05:53:24.629Z,3.43
2017-07-22T05:55:50.983Z,4.27
2017-07-22T05:58:17.303Z,3.53
2017-07-22T06:00:43.612Z,3.90
2017-07-22T06:03:09.847Z,4.20
2017-07-22T06:05:36.127Z,4.97
2017-07-22T06:08:02.407Z,5.10
2017-07-22T06:10:28.652Z,4.67
2017-07-22T06:12:54.907Z,5.87
2017-07-22T06:15:21.160Z,4.40
2017-07-22T06:17:47.531Z,5.30
2017-07-22T06:20:13.850Z,4.63
2017-07-22T06:22:40.154Z,4.50
2017-07-22T06:25:06.506Z,4.40
2017-07-22T06:27:34.040Z,5.00
2017-07-22T06:30:00.360Z,5.50
2017-07-22T06:32:26.675Z,4.43
2017-07-22T06:34:52.944Z,4.87
2017-07-22T06:37:20.102Z,5.10
2017-07-22T06:39:47.120Z,4.50
2017-07-22T06:42:15.024Z,4.70
2017-07-22T06:44:41.714Z,5.13
2017-07-22T06:47:07.948Z,5.00
2017-07-22T06:49:34.205Z,4.60
2017-07-22T06:52:01.273Z,4.90
2017-07-22T06:54:27.578Z,4.37
2017-07-22T06:56:54.605Z,4.87
2017-07-22T06:59:21.002Z,4.53
2017-07-22T07:01:47.284Z,4.40
2017-07-22T07:04:14.281Z,3.80
2017-07-22T07:06:40.654Z,4.27
2017-07-22T07:09:07.224Z,4.03
2017-07-22T07:11:33.844Z,4.50
2017-07-22T07:14:00.507Z,3.40
2017-07-22T07:16:26.821Z,4.93
2017-07-22T07:18:53.146Z,4.80
2017-07-22T07:21:20.213Z,4.30
2017-07-22T07:23:46.503Z,4.90
2017-07-22T07:26:13.569Z,4.67
2017-07-22T07:28:40.168Z,4.07
2017-07-22T07:31:06.572Z,3.83
2017-07-22T07:33:32.926Z,4.90
2017-07-22T07:36:00.195Z,4.00
2017-07-22T07:38:26.730Z,5.10
2017-07-22T07:40:53.705Z,4.70
2017-07-22T07:43:19.966Z,5.30
2017-07-22T07:45:46.771Z,4.50
2017-07-22T07:48:13.936Z,4.83
2017-07-22T07:50:40.713Z,4.57
2017-07-22T07:53:08.368Z,4.07
2017-07-22T07:55:35.698Z,4.20
2017-07-22T07:58:02.050Z,4.23
2017-07-22T08:00:28.302Z,4.13
2017-07-22T08:02:55.541Z,4.20
2017-07-22T08:05:22.565Z,4.47
2017-07-22T08:07:49.900Z,4.53
2017-07-22T08:10:16.958Z,4.53
2017-07-22T08:12:44.067Z,4.13
2017-07-22T08:15:12.097Z,4.40
2017-07-22T08:17:38.986Z,3.60
2017-07-22T08:20:06.138Z,4.50
2017-07-22T08:22:33.180Z,4.40
2017-07-22T08:24:59.647Z,5.93
2017-07-22T08:27:25.912Z,4.93
2017-07-22T08:29:52.859Z,4.73
2017-07-22T08:32:19.099Z,4.30
2017-07-22T08:34:45.390Z,7.00
2017-07-22T08:37:11.678Z,5.47
2017-07-22T08:39:38.777Z,7.07
2017-07-22T08:42:05.044Z,5.30
2017-07-22T08:44:31.914Z,5.60
2017-07-22T08:46:58.531Z,12.00
2017-07-22T08:49:25.525Z,10.67
2017-07-22T08:51:51.974Z,6.77
2017-07-22T08:54:19.270Z,4.60
2017-07-22T08:56:45.522Z,4.07
2017-07-22T08:59:13.367Z,4.20
2017-07-22T09:01:40.966Z,3.70
2017-07-22T09:04:08.256Z,4.20
2017-07-22T09:06:35.534Z,6.77
2017-07-22T09:09:02.583Z,4.40
2017-07-22T09:11:28.936Z,5.03
2017-07-22T09:13:55.902Z,4.80
2017-07-22T09:16:22.162Z,3.30
2017-07-22T09:18:49.424Z,8.20
2017-07-22T09:21:16.496Z,7.70
2017-07-22T09:23:43.800Z,7.67
2017-07-22T09:26:10.325Z,4.50
2017-07-22T09:28:36.700Z,4.23
2017-07-22T09:31:03.318Z,3.50
2017-07-22T09:33:30.549Z,3.40
2017-07-22T09:35:57.353Z,5.73
2017-07-22T09:38:24.063Z,6.07
2017-07-22T09:40:52.020Z,4.53
2017-07-22T09:43:18.392Z,3.70
2017-07-22T09:45:45.815Z,3.70
2017-07-22T09:48:12.234Z,3.57
2017-07-22T09:50:38.651Z,3.10
2017-07-22T09:53:04.948Z,4.10
2017-07-22T09:55:31.220Z,3.60
2017-07-22T09:57:57.667Z,4.47
2017-07-22T10:00:24.544Z,3.87
2017-07-22T10:02:50.803Z,3.33
2017-07-22T10:05:17.158Z,3.80
2017-07-22T10:07:44.391Z,4.43
2017-07-22T10:10:10.680Z,4.03
2017-07-22T10:12:36.925Z,4.37
2017-07-22T10:17:36.026Z,3.53
2017-07-22T10:20:02.322Z,3.27
2017-07-22T10:22:28.579Z,3.70
2017-07-22T10:24:54.847Z,3.20
2017-07-22T10:27:21.146Z,3.30
2017-07-22T10:29:48.153Z,3.00
2017-07-22T10:32:14.433Z,2.80
2017-07-22T10:34:41.235Z,3.00
2017-07-22T10:37:08.258Z,3.17
2017-07-22T10:39:34.584Z,3.03
2017-07-22T10:42:01.513Z,3.50
2017-07-22T10:44:28.645Z,3.00
2017-07-22T10:46:56.824Z,2.90
2017-07-22T10:49:23.107Z,2.70
2017-07-22T10:51:50.114Z,2.70
2017-07-22T10:54:16.408Z,2.63
2017-07-22T10:56:42.662Z,2.87
2017-07-22T10:59:09.464Z,3.50
2017-07-22T11:01:36.289Z,3.60
2017-07-22T11:04:03.611Z,3.03
2017-07-22T11:06:31.316Z,2.93
2017-07-22T11:08:58.146Z,2.80
2017-07-22T11:11:25.186Z,3.07
2017-07-22T11:13:51.463Z,2.60
2017-07-22T11:16:18.336Z,3.10
2017-07-22T11:18:44.584Z,2.43
2017-07-22T11:21:11.235Z,2.73
2017-07-22T11:23:38.259Z,2.87
2017-07-22T11:26:05.232Z,2.57
2017-07-22T11:28:32.775Z,2.50
2017-07-22T11:30:59.796Z,3.10
2017-07-22T11:33:26.359Z,3.20
2017-07-22T11:35:53.108Z,2.77
2017-07-22T11:38:20.106Z,2.63
2017-07-22T11:40:47.335Z,3.10
2017-07-22T11:43:13.591Z,2.70
2017-07-22T11:45:39.843Z,2.87
2017-07-22T11:48:06.375Z,2.80
2017-07-22T11:50:32.612Z,3.30
2017-07-22T11:52:58.871Z,2.90
2017-07-22T11:55:25.554Z,3.20
2017-07-22T11:57:51.981Z,3.10
2017-07-22T12:00:19.139Z,3.43
2017-07-22T12:02:45.419Z,3.10
2017-07-22T12:05:12.044Z,3.07
2017-07-22T12:07:38.371Z,3.87
2017-07-22T12:10:06.802Z,3.70
2017-07-22T12:12:33.056Z,3.97
2017-07-22T12:15:00.013Z,4.10
2017-07-22T12:17:27.333Z,3.73
2017-07-22T12:19:53.663Z,4.03
2017-07-22T12:22:20.856Z,4.17
2017-07-22T12:24:47.895Z,3.07
2017-07-22T12:27:14.174Z,3.63
2017-07-22T12:29:41.073Z,3.80
2017-07-22T12:32:08.082Z,4.07
2017-07-22T12:34:35.404Z,3.60
2017-07-22T12:37:02.649Z,3.50
2017-07-22T12:39:30.392Z,4.20
2017-07-22T12:41:57.784Z,3.83
2017-07-22T12:44:24.124Z,3.10
2017-07-22T12:46:50.580Z,3.40
2017-07-22T12:49:17.623Z,3.67
2017-07-22T12:51:43.872Z,3.10
2017-07-22T12:54:10.141Z,3.60
2017-07-22T12:56:36.387Z,3.80
2017-07-22T12:59:03.283Z,3.80
2017-07-22T13:01:31.298Z,3.23
2017-07-22T13:03:57.870Z,3.57
2017-07-22T13:06:24.176Z,3.70
2017-07-22T13:08:50.739Z,3.17
2017-07-22T13:11:17.048Z,3.50
2017-07-22T13:13:45.414Z,3.90
2017-07-22T13:16:11.824Z,4.27
2017-07-22T13:18:38.705Z,3.93
2017-07-22T13:21:05.692Z,3.93
2017-07-22T13:23:32.797Z,3.17
2017-07-22T13:26:00.652Z,3.60
2017-07-22T13:28:26.918Z,3.33
2017-07-22T13:30:53.182Z,3.90
2017-07-22T13:33:21.335Z,4.23
2017-07-22T13:35:48.948Z,3.87
2017-07-22T13:38:16.217Z,3.83
2017-07-22T13:40:43.938Z,3.60
2017-07-22T13:43:11.385Z,3.93
2017-07-22T13:45:37.685Z,3.40
2017-07-22T13:48:05.342Z,3.30
2017-07-22T13:50:32.212Z,3.70
2017-07-22T13:52:58.497Z,4.50
2017-07-22T13:55:25.315Z,3.70
2017-07-22T13:57:51.578Z,3.83
2017-07-22T14:00:18.907Z,3.80
2017-07-22T14:02:45.767Z,3.70
2017-07-22T14:05:12.056Z,3.77
2017-07-22T14:07:38.956Z,3.70
2017-07-22T14:10:05.272Z,3.73
2017-07-22T14:12:32.192Z,4.40
2017-07-22T14:14:58.497Z,4.03
2017-07-22T14:17:24.878Z,4.33
2017-07-22T14:19:51.180Z,3.73
2017-07-22T14:22:18.557Z,3.93
2017-07-22T14:24:45.355Z,3.23
2017-07-22T14:27:12.760Z,4.37
2017-07-22T14:29:41.258Z,3.70
2017-07-22T14:32:08.505Z,3.70
2017-07-22T14:34:34.796Z,4.00
2017-07-22T14:37:01.105Z,4.20
2017-07-22T14:39:28.288Z,4.40
2017-07-22T14:41:54.566Z,4.07
2017-07-22T14:44:20.847Z,3.80
2017-07-22T14:46:47.556Z,4.80
2017-07-22T14:49:15.056Z,4.10
2017-07-22T14:51:42.720Z,4.37
2017-07-22T14:54:10.416Z,4.70
2017-07-22T14:56:37.404Z,3.50
2017-07-22T14:59:05.065Z,3.90
2017-07-22T15:01:32.167Z,3.40
2017-07-22T15:03:59.226Z,4.50
2017-07-22T15:06:25.680Z,4.40
2017-07-22T15:08:52.086Z,3.83
2017-07-22T15:11:18.371Z,3.90
2017-07-22T15:13:44.635Z,3.30
2017-07-22T15:16:11.720Z,4.10
2017-07-22T15:18:38.036Z,3.27
2017-07-22T15:21:04.346Z,4.00
2017-07-22T15:23:32.078Z,4.43
2017-07-22T15:25:58.454Z,3.83
2017-07-22T15:28:25.340Z,3.60
2017-07-22T15:30:52.610Z,3.73
2017-07-22T15:33:18.936Z,3.40
2017-07-22T15:35:46.318Z,3.50
2017-07-22T15:38:13.392Z,3.30
2017-07-22T15:40:39.655Z,4.63
2017-07-22T15:43:05.904Z,3.30
2017-07-22T15:45:33.114Z,3.70
2017-07-22T15:47:59.366Z,3.47
2017-07-22T15:50:25.632Z,3.50
2017-07-22T15:52:52.612Z,3.30
2017-07-22T15:55:19.487Z,3.63
2017-07-22T15:57:46.511Z,3.90
2017-07-22T16:00:12.823Z,3.10
2017-07-22T16:02:39.078Z,3.93
2017-07-22T16:05:05.365Z,3.60
2017-07-22T16:07:32.674Z,3.67
2017-07-22T16:09:59.808Z,4.00
2017-07-22T16:12:26.100Z,3.47
2017-07-22T16:14:52.361Z,3.80
2017-07-22T16:17:18.594Z,3.33
2017-07-22T16:19:44.976Z,3.50
2017-07-22T16:22:11.958Z,4.03
2017-07-22T16:24:38.210Z,3.80
2017-07-22T16:27:04.465Z,4.80
2017-07-22T16:29:31.463Z,3.73
2017-07-22T16:31:57.712Z,3.60
2017-07-22T16:34:23.993Z,5.20
2017-07-22T16:36:50.293Z,4.07
2017-07-22T16:39:16.929Z,3.57
2017-07-22T16:41:43.192Z,4.27
2017-07-22T16:44:09.791Z,3.40
2017-07-22T16:46:37.241Z,3.63
2017-07-22T16:49:04.799Z,3.53
2017-07-22T16:51:31.068Z,4.20
2017-07-22T16:53:57.324Z,3.67
2017-07-22T16:56:23.574Z,3.50
2017-07-22T16:58:49.791Z,4.13
2017-07-22T17:01:16.217Z,3.90
2017-07-22T17:03:42.529Z,4.13
2017-07-22T17:06:09.274Z,3.67
2017-07-22T17:08:36.218Z,3.47
2017-07-22T17:11:02.472Z,4.00
2017-07-22T17:13:28.773Z,3.10
2017-07-22T17:15:55.569Z,4.13
2017-07-22T17:18:21.928Z,4.53
2017-07-22T17:20:48.829Z,3.60
2017-07-22T17:23:16.033Z,3.50
2017-07-22T17:25:43.013Z,4.60
2017-07-22T17:28:09.468Z,4.20
2017-07-22T17:30:36.799Z,3.07
2017-07-22T17:33:03.686Z,4.27
2017-07-22T17:35:31.420Z,4.20
2017-07-22T17:37:57.733Z,3.97
2017-07-22T17:40:24.177Z,4.43
2017-07-22T17:42:51.896Z,4.27
2017-07-22T17:45:18.686Z,4.30
2017-07-22T17:47:44.974Z,3.83
2017-07-22T17:50:11.420Z,4.07
2017-07-22T17:52:38.262Z,4.30
2017-07-22T17:55:04.508Z,4.10
2017-07-22T17:57:31.775Z,5.03
2017-07-22T17:59:58.059Z,4.30
2017-07-22T18:02:24.307Z,3.93
2017-07-22T18:04:51.596Z,4.17
2017-07-22T18:07:18.689Z,3.50
2017-07-22T18:09:45.224Z,4.10
2017-07-22T18:12:13.183Z,4.23
2017-07-22T18:14:39.520Z,4.60
2017-07-22T18:17:05.773Z,3.90
2017-07-22T18:19:32.656Z,4.07
2017-07-22T18:22:00.174Z,4.37
2017-07-22T18:24:26.462Z,4.50
2017-07-22T18:26:53.726Z,4.97
2017-07-22T18:29:20.055Z,5.33
2017-07-22T18:31:46.729Z,5.30
2017-07-22T18:34:13.039Z,4.80
2017-07-22T18:36:39.884Z,5.30
2017-07-22T18:39:06.151Z,4.87
2017-07-22T18:41:32.933Z,4.60
2017-07-22T18:43:59.283Z,5.27
2017-07-22T18:46:25.549Z,5.13
2017-07-22T18:48:51.810Z,5.87
2017-07-22T18:51:19.010Z,5.80
2017-07-22T18:53:45.282Z,5.10
2017-07-22T18:56:13.025Z,5.40
2017-07-22T18:58:41.139Z,5.50
2017-07-22T19:01:08.312Z,5.47
2017-07-22T19:03:34.798Z,4.60
2017-07-22T19:06:01.800Z,4.30
2017-07-22T19:08:28.166Z,5.67
2017-07-22T19:10:54.508Z,5.70
2017-07-22T19:13:21.509Z,5.80
2017-07-22T19:15:48.789Z,5.50
2017-07-22T19:18:15.372Z,5.27
2017-07-22T19:20:43.112Z,5.30
2017-07-22T19:23:10.134Z,4.90
2017-07-22T19:25:37.164Z,5.27
2017-07-22T19:28:03.991Z,5.87
2017-07-22T19:30:31.540Z,4.20
2017-07-22T19:32:58.163Z,5.70
2017-07-22T19:35:25.881Z,5.10
2017-07-22T19:37:53.153Z,5.13
2017-07-22T19:40:19.464Z,5.17
2017-07-22T19:42:45.847Z,5.30
2017-07-22T19:45:12.196Z,5.20
2017-07-22T19:47:38.450Z,4.13
2017-07-22T19:50:05.404Z,4.20
2017-07-22T19:52:33.026Z,4.63
2017-07-22T19:54:59.609Z,5.50
2017-07-22T19:57:27.336Z,5.47
2017-07-22T19:59:54.578Z,4.33
2017-07-22T20:02:21.189Z,5.30
2017-07-22T20:04:48.991Z,4.60
2017-07-22T20:07:15.266Z,4.90
2017-07-22T20:09:42.132Z,4.80
2017-07-22T20:12:08.809Z,4.43
2017-07-22T20:14:35.632Z,3.70
2017-07-22T20:17:01.926Z,4.80
2017-07-22T20:19:28.160Z,4.70
2017-07-22T20:21:54.469Z,4.60
2017-07-22T20:24:20.739Z,4.50
2017-07-22T20:26:47.007Z,4.50
2017-07-22T20:29:13.815Z,5.17
2017-07-22T20:31:40.052Z,5.00
2017-07-22T20:34:07.280Z,4.20
2017-07-22T20:36:33.549Z,6.17
2017-07-22T20:39:00.711Z,5.40
2017-07-22T20:41:27.736Z,5.50
2017-07-22T20:43:53.988Z,6.10
2017-07-22T20:46:20.501Z,5.30
2017-07-22T20:48:47.366Z,5.43
2017-07-22T20:51:14.095Z,5.70
2017-07-22T20:53:40.334Z,5.70
2017-07-22T20:56:06.620Z,5.90
2017-07-22T20:58:32.888Z,4.90
2017-07-22T21:00:59.190Z,5.10
2017-07-22T21:03:25.505Z,5.43
2017-07-22T21:05:51.812Z,4.93
2017-07-22T21:08:18.690Z,6.43
2017-07-22T21:10:44.970Z,5.63
2017-07-22T21:13:12.488Z,5.30
2017-07-22T21:15:39.730Z,5.40
2017-07-22T21:18:05.985Z,6.37
2017-07-22T21:20:33.263Z,5.77
2017-07-22T21:22:59.500Z,5.60
2017-07-22T21:25:25.773Z,5.30
2017-07-22T21:27:53.034Z,6.10
2017-07-22T21:30:20.305Z,5.87
2017-07-22T21:32:46.777Z,6.07
2017-07-22T21:35:13.023Z,6.50
2017-07-22T21:37:39.276Z,5.70
2017-07-22T21:40:05.785Z,6.10
2017-07-22T21:42:33.546Z,4.83
2017-07-22T21:45:01.311Z,5.30
2017-07-22T21:47:28.008Z,6.90
2017-07-22T21:49:55.586Z,5.70
2017-07-22T21:52:21.865Z,4.93
2017-07-22T21:54:48.121Z,4.87
2017-07-22T21:57:14.375Z,5.10
2017-07-22T21:59:41.642Z,5.20
2017-07-22T22:02:07.900Z,5.37
2017-07-22T22:04:34.180Z,6.30
2017-07-22T22:07:00.423Z,6.80
2017-07-22T22:09:27.109Z,6.87
2017-07-22T22:11:54.173Z,6.17
2017-07-22T22:14:21.153Z,6.27
2017-07-22T22:16:48.397Z,5.70
2017-07-22T22:19:14.658Z,4.90
2017-07-22T22:21:40.965Z,6.57
2017-07-22T22:24:07.866Z,6.20
2017-07-22T22:26:34.163Z,7.07
2017-07-22T22:29:00.435Z,6.03
2017-07-22T22:31:28.052Z,7.10
2017-07-22T22:33:54.989Z,6.10
2017-07-22T22:36:21.199Z,6.53
2017-07-22T22:38:47.457Z,7.30
2017-07-22T22:41:13.721Z,7.33
2017-07-22T22:43:40.983Z,6.23
2017-07-22T22:46:07.998Z,7.43
2017-07-22T22:48:35.717Z,6.83
2017-07-22T22:51:01.984Z,6.27
2017-07-22T22:53:28.273Z,7.27
2017-07-22T22:55:54.559Z,6.80
2017-07-22T22:58:22.791Z,7.37
2017-07-22T23:00:49.085Z,6.43
2017-07-22T23:03:16.080Z,7.63
2017-07-22T23:05:42.330Z,7.10
2017-07-22T23:08:08.617Z,6.67
2017-07-22T23:10:34.866Z,8.00
2017-07-22T23:13:01.559Z,8.57
2017-07-22T23:15:27.933Z,7.87
2017-07-22T23:17:54.220Z,8.03
2017-07-22T23:20:21.206Z,8.30
2017-07-22T23:22:48.090Z,7.40
2017-07-22T23:25:15.108Z,7.17
2017-07-22T23:27:41.363Z,6.90
2017-07-22T23:30:08.072Z,7.90
2017-07-22T23:32:35.357Z,7.63
2017-07-22T23:35:02.376Z,7.23
2017-07-22T23:37:29.485Z,6.70
2017-07-22T23:39:56.957Z,7.80
2017-07-22T23:42:23.203Z,8.00
2017-07-22T23:44:49.476Z,6.63
2017-07-22T23:47:17.462Z,6.23
2017-07-22T23:49:52.101Z,7.10
2017-07-22T23:52:18.375Z,8.27
2017-07-22T23:54:44.716Z,6.00
2017-07-22T23:57:10.998Z,7.17
2017-07-22T23:59:37.851Z,6.43
